createdAt,value
2022-08-17T00:00:43.353Z,34.90
2022-08-17T00:03:13.649Z,35.20
2022-08-17T00:05:46.858Z,34.91
2022-08-17T00:08:19.542Z,34.71
2022-08-17T00:10:49.025Z,34.79
2022-08-17T00:13:21.314Z,34.86
2022-08-17T00:15:50.250Z,34.73
2022-08-17T00:19:06.395Z,35.07
2022-08-17T00:21:11.304Z,34.65
2022-08-17T00:23:44.421Z,34.52
2022-08-17T00:26:43.656Z,35.45
2022-08-17T00:29:08.525Z,34.65
2022-08-17T00:31:38.279Z,35.04
2022-08-17T00:34:10.174Z,35.39
2022-08-17T00:36:39.252Z,35.21
2022-08-17T00:39:07.899Z,34.66
2022-08-17T00:41:36.701Z,34.55
2022-08-17T00:44:12.296Z,34.80
2022-08-17T00:46:43.350Z,34.73
2022-08-17T00:49:19.133Z,34.36
2022-08-17T00:51:53.858Z,34.86
2022-08-17T00:54:27.112Z,34.87
2022-08-17T00:56:59.973Z,34.33
2022-08-17T00:59:34.601Z,34.97
2022-08-17T01:02:04.389Z,34.90
2022-08-17T01:04:34.962Z,34.81
2022-08-17T01:07:05.451Z,34.89
2022-08-17T01:09:35.111Z,34.58
2022-08-17T01:12:06.236Z,34.63
2022-08-17T01:14:38.203Z,33.99
2022-08-17T01:17:08.033Z,34.49
2022-08-17T01:19:41.905Z,34.68
2022-08-17T01:22:23.574Z,34.69
2022-08-17T01:24:57.519Z,34.89
2022-08-17T01:27:27.769Z,34.79
2022-08-17T01:29:59.922Z,34.30
2022-08-17T01:32:30.449Z,34.25
2022-08-17T01:35:00.669Z,34.87
2022-08-17T01:37:35.355Z,34.76
2022-08-17T01:40:14.089Z,34.51
2022-08-17T01:42:49.061Z,34.11
2022-08-17T01:45:23.078Z,34.67
2022-08-17T01:47:53.760Z,34.46
2022-08-17T01:50:25.513Z,34.69
2022-08-17T01:52:59.695Z,34.36
2022-08-17T01:55:37.267Z,34.70
2022-08-17T01:58:09.869Z,34.75
2022-08-17T02:00:59.579Z,34.84
2022-08-17T02:03:27.775Z,34.87
2022-08-17T02:05:56.916Z,34.42
2022-08-17T02:08:39.087Z,34.89
2022-08-17T02:11:12.273Z,34.85
2022-08-17T02:13:40.703Z,34.90
2022-08-17T02:16:09.734Z,35.19
2022-08-17T02:18:38.165Z,35.21
2022-08-17T02:21:07.536Z,34.83
2022-08-17T02:23:41.680Z,35.27
2022-08-17T02:26:10.634Z,34.90
2022-08-17T02:28:54.907Z,35.20
2022-08-17T02:31:23.290Z,35.01
2022-08-17T02:33:56.866Z,34.88
2022-08-17T02:36:33.706Z,35.36
2022-08-17T02:39:05.769Z,35.33
2022-08-17T02:41:34.821Z,35.28
2022-08-17T02:44:03.931Z,35.54
2022-08-17T02:46:32.439Z,35.40
2022-08-17T02:49:01.125Z,35.42
2022-08-17T02:51:29.924Z,35.34
2022-08-17T02:54:02.215Z,35.65
2022-08-17T02:56:48.451Z,35.64
2022-08-17T02:59:16.997Z,35.26
2022-08-17T03:01:45.523Z,35.40
2022-08-17T03:04:14.244Z,35.79
2022-08-17T03:06:42.743Z,35.50
2022-08-17T03:09:11.171Z,35.31
2022-08-17T03:11:39.909Z,35.51
2022-08-17T03:14:10.024Z,35.83
2022-08-17T03:16:38.529Z,35.42
2022-08-17T03:19:08.042Z,35.38
2022-08-17T03:21:36.684Z,35.78
2022-08-17T03:24:08.810Z,35.47
2022-08-17T03:26:37.899Z,35.89
2022-08-17T03:29:06.341Z,35.63
2022-08-17T03:31:37.027Z,35.68
2022-08-17T03:34:06.184Z,35.92
2022-08-17T03:36:36.016Z,35.48
2022-08-17T03:39:05.679Z,35.84
2022-08-17T03:41:34.625Z,35.60
2022-08-17T03:44:03.521Z,35.79
2022-08-17T03:46:49.151Z,35.86
2022-08-17T03:49:36.634Z,35.89
2022-08-17T03:52:23.197Z,36.25
2022-08-17T03:55:09.035Z,35.66
2022-08-17T03:57:37.737Z,35.71
2022-08-17T04:00:07.612Z,35.63
2022-08-17T04:02:40.548Z,36.07
2022-08-17T04:05:10.718Z,35.92
2022-08-17T04:07:39.197Z,36.19
2022-08-17T04:10:08.845Z,35.81
2022-08-17T04:12:45.472Z,35.58
2022-08-17T04:15:14.471Z,35.89
2022-08-17T04:17:44.283Z,36.15
2022-08-17T04:20:15.892Z,35.75
2022-08-17T04:22:57.436Z,35.71
2022-08-17T04:25:27.745Z,35.55
2022-08-17T04:27:58.086Z,35.67
2022-08-17T04:30:28.502Z,35.67
2022-08-17T04:33:04.504Z,35.48
2022-08-17T04:35:41.227Z,35.16
2022-08-17T04:38:11.991Z,34.89
2022-08-17T04:40:58.643Z,34.65
2022-08-17T04:43:28.775Z,34.71
2022-08-17T04:46:00.202Z,35.00
2022-08-17T04:48:36.226Z,34.48
2022-08-17T04:51:10.675Z,34.25
2022-08-17T04:53:40.382Z,34.64
2022-08-17T04:56:16.001Z,34.19
2022-08-17T04:58:49.824Z,34.43
2022-08-17T05:01:23.284Z,33.81
2022-08-17T05:03:53.130Z,33.92
2022-08-17T05:06:24.353Z,34.32
2022-08-17T05:08:53.126Z,33.54
2022-08-17T05:11:22.456Z,33.34
2022-08-17T05:13:51.295Z,33.60
2022-08-17T05:16:20.716Z,33.59
2022-08-17T05:18:49.759Z,33.54
2022-08-17T05:21:19.623Z,33.34
2022-08-17T05:23:56.186Z,33.55
2022-08-17T05:26:27.345Z,33.23
2022-08-17T05:29:00.545Z,33.40
2022-08-17T05:31:32.403Z,33.53
2022-08-17T05:34:00.938Z,33.72
2022-08-17T05:36:38.025Z,33.28
2022-08-17T05:39:16.082Z,33.98
2022-08-17T05:41:48.451Z,33.45
2022-08-17T05:44:18.174Z,33.93
2022-08-17T05:46:51.332Z,33.75
2022-08-17T05:49:27.139Z,33.30
2022-08-17T05:52:14.880Z,33.58
2022-08-17T05:55:15.407Z,34.06
2022-08-17T05:57:56.792Z,34.31
2022-08-17T06:00:30.883Z,34.06
2022-08-17T06:03:19.949Z,34.33
2022-08-17T06:06:00.468Z,35.34
2022-08-17T06:08:39.574Z,34.73
2022-08-17T06:11:20.677Z,34.45
2022-08-17T06:14:26.992Z,34.22
2022-08-17T06:17:01.817Z,35.44
2022-08-17T06:19:37.498Z,34.44
2022-08-17T06:22:07.458Z,34.06
2022-08-17T06:24:40.322Z,35.13
2022-08-17T06:27:17.338Z,35.13
2022-08-17T06:29:54.861Z,35.14
2022-08-17T06:32:25.073Z,35.26
2022-08-17T06:34:55.305Z,34.86
2022-08-17T06:37:42.580Z,37.06
2022-08-17T06:40:30.577Z,36.05
2022-08-17T06:43:14.824Z,36.91
2022-08-17T06:45:49.541Z,35.57
2022-08-17T06:48:27.871Z,35.73
2022-08-17T06:51:01.276Z,35.22
2022-08-17T06:53:36.272Z,35.62
2022-08-17T06:56:09.607Z,36.30
2022-08-17T06:58:43.388Z,36.61
2022-08-17T07:01:16.486Z,36.65
2022-08-17T07:03:54.909Z,35.86
2022-08-17T07:06:27.740Z,36.37
2022-08-17T07:09:03.691Z,35.71
2022-08-17T07:11:39.527Z,35.72
2022-08-17T07:14:22.378Z,34.80
2022-08-17T07:16:55.114Z,35.71
2022-08-17T07:19:27.132Z,36.05
2022-08-17T07:22:03.053Z,36.85
2022-08-17T07:24:37.339Z,38.11
2022-08-17T07:27:09.838Z,36.77
2022-08-17T07:29:44.010Z,36.14
2022-08-17T07:32:17.269Z,36.62
2022-08-17T07:35:15.927Z,36.75
2022-08-17T07:37:53.211Z,35.63
2022-08-17T07:40:28.787Z,35.57
2022-08-17T07:43:22.361Z,35.08
2022-08-17T07:46:20.973Z,37.47
2022-08-17T07:48:51.613Z,39.16
2022-08-17T07:51:26.632Z,39.71
2022-08-17T07:54:13.159Z,40.58
2022-08-17T07:56:46.466Z,40.41
2022-08-17T07:59:23.087Z,39.82
2022-08-17T08:02:18.831Z,39.86
2022-08-17T08:05:01.468Z,38.35
2022-08-17T08:07:34.867Z,39.39
2022-08-17T08:10:11.094Z,39.45
2022-08-17T08:12:41.885Z,38.26
2022-08-17T08:15:17.784Z,38.40
2022-08-17T08:17:53.704Z,37.14
2022-08-17T08:20:52.050Z,36.20
2022-08-17T08:23:47.312Z,35.29
2022-08-17T08:26:26.439Z,36.77
2022-08-17T08:29:06.858Z,35.59
2022-08-17T08:31:51.522Z,35.84
2022-08-17T08:34:53.164Z,34.66
2022-08-17T08:37:36.644Z,33.90
2022-08-17T08:40:17.515Z,33.73
2022-08-17T08:42:56.492Z,33.98
2022-08-17T08:45:30.561Z,32.92
2022-08-17T08:48:56.376Z,33.94
2022-08-17T08:51:32.797Z,34.27
2022-08-17T08:54:12.739Z,33.87
2022-08-17T08:57:11.987Z,33.58
2022-08-17T08:59:45.039Z,33.95
2022-08-17T09:02:46.013Z,34.35
2022-08-17T09:05:27.130Z,34.66
2022-08-17T09:08:04.662Z,34.60
2022-08-17T09:10:47.828Z,35.58
2022-08-17T09:13:23.145Z,34.31
2022-08-17T09:15:59.018Z,34.23
2022-08-17T09:19:01.473Z,32.89
2022-08-17T09:21:29.446Z,33.17
2022-08-17T09:24:12.823Z,34.06
2022-08-17T09:26:49.686Z,34.50
2022-08-17T09:29:24.477Z,33.62
2022-08-17T09:31:57.060Z,31.95
2022-08-17T09:34:33.636Z,32.70
2022-08-17T09:37:12.314Z,33.22
2022-08-17T09:39:49.378Z,32.23
2022-08-17T09:42:25.891Z,31.02
2022-08-17T09:45:04.852Z,31.04
2022-08-17T09:47:38.059Z,30.54
2022-08-17T09:50:13.434Z,29.53
2022-08-17T09:52:44.182Z,29.69
2022-08-17T09:55:14.196Z,29.24
2022-08-17T09:57:58.452Z,28.58
2022-08-17T10:00:33.794Z,30.54
2022-08-17T10:03:21.210Z,29.64
2022-08-17T10:05:57.255Z,29.47
2022-08-17T10:08:36.152Z,30.29
2022-08-17T10:11:22.475Z,30.41
2022-08-17T10:14:36.555Z,30.25
2022-08-17T10:17:09.150Z,29.99
2022-08-17T10:19:44.260Z,29.31
2022-08-17T10:22:38.821Z,28.70
2022-08-17T10:25:48.643Z,28.77
2022-08-17T10:28:29.425Z,29.34
2022-08-17T10:31:34.131Z,28.77
2022-08-17T10:34:08.048Z,29.09
2022-08-17T10:36:48.333Z,29.40
2022-08-17T10:39:28.646Z,28.33
2022-08-17T10:42:01.765Z,28.26
2022-08-17T10:44:47.012Z,28.78
2022-08-17T10:47:18.090Z,28.25
2022-08-17T10:49:49.676Z,28.28
2022-08-17T10:52:50.250Z,28.26
2022-08-17T10:55:20.643Z,29.29
2022-08-17T10:57:51.386Z,30.42
2022-08-17T11:01:03.849Z,29.46
2022-08-17T11:03:34.890Z,28.38
2022-08-17T11:06:18.706Z,28.16
2022-08-17T11:09:19.870Z,27.91
2022-08-17T11:12:10.113Z,28.56
2022-08-17T11:14:55.312Z,27.77
2022-08-17T11:17:44.895Z,27.92
2022-08-17T11:20:41.274Z,27.03
2022-08-17T11:23:34.368Z,25.73
2022-08-17T11:26:18.618Z,25.20
2022-08-17T11:28:52.751Z,25.22
2022-08-17T11:31:39.274Z,25.34
2022-08-17T11:34:18.527Z,24.64
2022-08-17T11:37:11.361Z,23.41
2022-08-17T11:40:06.345Z,24.16
2022-08-17T11:42:51.470Z,24.86
2022-08-17T11:45:42.741Z,25.28
2022-08-17T11:48:38.778Z,24.52
2022-08-17T11:51:36.675Z,23.93
2022-08-17T11:54:32.278Z,22.68
2022-08-17T11:57:39.727Z,22.98
2022-08-17T12:00:10.779Z,22.76
2022-08-17T12:02:48.063Z,22.41
2022-08-17T12:05:32.900Z,22.14
2022-08-17T12:08:18.730Z,21.74
2022-08-17T12:10:59.608Z,22.57
2022-08-17T12:13:38.737Z,21.85
2022-08-17T12:16:10.080Z,21.57
2022-08-17T12:18:42.083Z,21.35
2022-08-17T12:21:24.582Z,20.79
2022-08-17T12:23:58.779Z,19.90
2022-08-17T12:26:33.361Z,20.64
2022-08-17T12:29:05.608Z,20.10
2022-08-17T12:31:44.362Z,19.11
2022-08-17T12:34:17.407Z,18.23
2022-08-17T12:36:47.664Z,19.51
2022-08-17T12:39:21.609Z,20.40
2022-08-17T12:42:02.084Z,18.84
2022-08-17T12:44:34.772Z,18.13
2022-08-17T12:47:19.370Z,17.55
2022-08-17T12:49:52.576Z,17.29
2022-08-17T12:52:25.099Z,16.90
2022-08-17T12:54:56.947Z,16.49
2022-08-17T12:57:33.183Z,16.13
2022-08-17T13:00:11.520Z,16.19
2022-08-17T13:02:45.117Z,15.01
2022-08-17T13:05:23.235Z,14.78
2022-08-17T13:07:54.702Z,15.20
2022-08-17T13:10:32.203Z,15.73
2022-08-17T13:13:06.059Z,16.73
2022-08-17T13:15:44.620Z,16.16
2022-08-17T13:18:38.888Z,17.83
2022-08-17T13:21:12.228Z,18.59
2022-08-17T13:23:53.734Z,18.10
2022-08-17T13:26:29.365Z,19.22
2022-08-17T13:29:00.740Z,18.60
2022-08-17T13:31:51.800Z,18.46
2022-08-17T13:34:42.378Z,18.40
2022-08-17T13:37:32.247Z,17.98
2022-08-17T13:40:03.868Z,18.08
2022-08-17T13:42:52.556Z,18.54
2022-08-17T13:45:38.955Z,19.15
2022-08-17T13:48:17.844Z,19.83
2022-08-17T13:51:03.085Z,21.11
2022-08-17T13:53:47.596Z,21.08
2022-08-17T13:56:33.447Z,20.51
2022-08-17T13:59:12.444Z,20.57
2022-08-17T14:01:49.642Z,20.13
2022-08-17T14:04:24.553Z,20.73
2022-08-17T14:06:56.281Z,20.52
2022-08-17T14:09:27.638Z,20.40
2022-08-17T14:11:58.825Z,20.10
2022-08-17T14:14:29.259Z,21.24
2022-08-17T14:16:59.533Z,21.54
2022-08-17T14:19:27.959Z,20.92
2022-08-17T14:21:58.821Z,20.65
2022-08-17T14:24:30.047Z,20.71
2022-08-17T14:26:59.666Z,21.40
2022-08-17T14:29:30.127Z,21.15
2022-08-17T14:32:04.986Z,20.99
2022-08-17T14:34:33.712Z,21.65
2022-08-17T14:37:02.175Z,22.47
2022-08-17T14:39:30.598Z,22.47
2022-08-17T14:41:59.281Z,23.61
2022-08-17T14:44:27.697Z,22.42
2022-08-17T14:46:56.226Z,22.30
2022-08-17T14:49:26.273Z,23.14
2022-08-17T14:51:54.720Z,23.21
2022-08-17T14:54:33.436Z,23.61
2022-08-17T14:57:23.029Z,24.18
2022-08-17T14:59:54.274Z,23.93
2022-08-17T15:02:29.353Z,24.28
2022-08-17T15:05:06.133Z,23.03
2022-08-17T15:07:34.932Z,23.23
2022-08-17T15:10:03.585Z,23.19
2022-08-17T15:12:34.127Z,24.00
2022-08-17T15:15:04.883Z,24.02
2022-08-17T15:17:43.846Z,23.96
2022-08-17T15:20:17.738Z,24.85
2022-08-17T15:22:49.617Z,24.91
2022-08-17T15:25:20.002Z,24.98
2022-08-17T15:27:49.322Z,25.23
2022-08-17T15:30:18.221Z,25.24
2022-08-17T15:32:54.110Z,25.69
2022-08-17T15:35:29.145Z,25.37
2022-08-17T15:38:08.094Z,25.91
2022-08-17T15:40:41.892Z,25.61
2022-08-17T15:43:12.926Z,24.96
2022-08-17T15:45:41.868Z,24.64
2022-08-17T15:48:11.371Z,24.96
2022-08-17T15:50:42.221Z,24.23
2022-08-17T15:53:11.114Z,24.65
2022-08-17T15:55:43.976Z,24.68
2022-08-17T15:58:12.451Z,24.10
2022-08-17T16:00:52.981Z,23.64
2022-08-17T16:03:58.394Z,23.34
2022-08-17T16:06:21.401Z,23.39
2022-08-17T16:08:50.697Z,23.45
2022-08-17T16:11:19.632Z,23.48
2022-08-17T16:13:55.083Z,22.98
2022-08-17T16:16:24.764Z,23.15
2022-08-17T16:18:54.726Z,22.68
2022-08-17T16:21:39.327Z,22.72
2022-08-17T16:24:13.156Z,22.49
2022-08-17T16:26:42.836Z,22.55
2022-08-17T16:29:11.637Z,22.34
2022-08-17T16:31:41.745Z,22.44
2022-08-17T16:34:17.626Z,22.31
2022-08-17T16:36:55.287Z,22.14
2022-08-17T16:39:26.878Z,22.37
2022-08-17T16:41:56.103Z,22.00
2022-08-17T16:44:25.799Z,22.52
2022-08-17T16:46:54.593Z,22.38
2022-08-17T16:49:35.537Z,22.77
2022-08-17T16:52:11.294Z,22.48
2022-08-17T16:54:43.846Z,22.82
2022-08-17T16:57:14.323Z,22.69
2022-08-17T16:59:47.814Z,23.38
2022-08-17T17:02:18.226Z,23.33
2022-08-17T17:04:54.417Z,23.60
2022-08-17T17:08:04.591Z,23.10
2022-08-17T17:10:40.795Z,23.12
2022-08-17T17:13:15.572Z,23.37
2022-08-17T17:15:55.045Z,23.39
2022-08-17T17:18:32.676Z,23.21
2022-08-17T17:21:02.201Z,23.28
2022-08-17T17:23:39.068Z,23.20
2022-08-17T17:26:23.756Z,23.08
2022-08-17T17:29:08.037Z,23.31
2022-08-17T17:31:46.261Z,23.16
2022-08-17T17:34:17.413Z,23.34
2022-08-17T17:36:51.516Z,23.16
2022-08-17T17:39:33.619Z,23.33
2022-08-17T17:42:07.719Z,23.33
2022-08-17T17:44:41.833Z,23.13
2022-08-17T17:47:11.864Z,23.34
2022-08-17T17:49:44.435Z,23.29
2022-08-17T17:52:22.334Z,23.26
2022-08-17T17:55:13.311Z,23.15
2022-08-17T17:57:55.967Z,23.23
2022-08-17T18:00:27.045Z,23.41
2022-08-17T18:03:08.644Z,23.44
2022-08-17T18:06:05.099Z,23.35
2022-08-17T18:08:47.928Z,23.85
2022-08-17T18:11:43.390Z,24.11
2022-08-17T18:14:27.145Z,24.34
2022-08-17T18:16:59.670Z,24.47
2022-08-17T18:19:30.031Z,24.15
2022-08-17T18:22:07.758Z,24.82
2022-08-17T18:24:46.322Z,24.56
2022-08-17T18:27:26.374Z,24.73
2022-08-17T18:29:57.960Z,24.61
2022-08-17T18:32:36.337Z,25.02
2022-08-17T18:35:34.989Z,24.61
2022-08-17T18:38:29.206Z,25.02
2022-08-17T18:41:01.713Z,25.26
2022-08-17T18:43:43.849Z,25.36
2022-08-17T18:46:33.150Z,25.09
2022-08-17T18:49:04.748Z,25.12
2022-08-17T18:51:41.007Z,25.01
2022-08-17T18:54:20.150Z,25.61
2022-08-17T18:56:55.174Z,25.57
2022-08-17T18:59:28.739Z,25.36
2022-08-17T19:02:34.634Z,25.39
2022-08-17T19:05:13.385Z,25.77
2022-08-17T19:07:43.854Z,26.06
2022-08-17T19:10:20.734Z,25.79
2022-08-17T19:13:00.333Z,26.03
2022-08-17T19:15:35.593Z,25.52
2022-08-17T19:18:15.447Z,26.24
2022-08-17T19:20:48.992Z,26.01
2022-08-17T19:23:26.346Z,26.30
2022-08-17T19:25:59.436Z,26.11
2022-08-17T19:28:33.421Z,26.10
2022-08-17T19:31:07.877Z,26.65
2022-08-17T19:33:37.994Z,26.88
2022-08-17T19:36:11.132Z,26.80
2022-08-17T19:38:50.747Z,26.50
2022-08-17T19:41:24.718Z,26.55
2022-08-17T19:44:27.016Z,26.51
2022-08-17T19:47:06.072Z,26.87
2022-08-17T19:49:47.874Z,26.86
2022-08-17T19:52:36.271Z,26.94
2022-08-17T19:55:20.970Z,27.19
2022-08-17T19:58:02.349Z,27.77
2022-08-17T20:00:32.294Z,27.76
2022-08-17T20:03:06.286Z,28.03
2022-08-17T20:06:01.435Z,27.58
2022-08-17T20:08:32.934Z,27.64
2022-08-17T20:11:08.827Z,27.66
2022-08-17T20:13:42.133Z,28.25
2022-08-17T20:16:12.151Z,28.70
2022-08-17T20:18:51.416Z,28.46
2022-08-17T20:21:27.411Z,28.07
2022-08-17T20:24:05.776Z,28.31
2022-08-17T20:26:58.564Z,28.47
2022-08-17T20:29:37.497Z,28.71
2022-08-17T20:32:26.861Z,28.31
2022-08-17T20:35:10.033Z,28.66
2022-08-17T20:37:44.636Z,28.64
2022-08-17T20:40:23.558Z,28.53
2022-08-17T20:42:51.929Z,28.91
2022-08-17T20:46:12.096Z,28.47
2022-08-17T20:48:45.465Z,28.84
2022-08-17T20:51:24.271Z,28.68
2022-08-17T20:54:29.312Z,29.05
2022-08-17T20:57:01.287Z,29.41
2022-08-17T20:59:56.256Z,28.95
2022-08-17T21:02:28.870Z,29.18
2022-08-17T21:05:06.995Z,29.07
2022-08-17T21:07:58.392Z,29.34
2022-08-17T21:10:36.714Z,29.20
2022-08-17T21:14:09.174Z,29.11
2022-08-17T21:16:54.732Z,29.31
2022-08-17T21:19:54.180Z,29.37
2022-08-17T21:22:46.891Z,28.98
2022-08-17T21:25:40.396Z,29.60
2022-08-17T21:28:22.261Z,29.25
2022-08-17T21:31:06.768Z,29.38
2022-08-17T21:33:38.512Z,29.62
2022-08-17T21:36:24.757Z,29.31
2022-08-17T21:39:02.428Z,29.22
2022-08-17T21:41:34.553Z,29.72
2022-08-17T21:44:12.218Z,29.75
2022-08-17T21:46:46.494Z,29.65
2022-08-17T21:49:19.387Z,29.57
2022-08-17T21:51:53.840Z,29.88
2022-08-17T21:54:31.763Z,29.63
2022-08-17T21:57:02.747Z,29.86
2022-08-17T21:59:35.719Z,29.90
2022-08-17T22:02:07.685Z,30.12
2022-08-17T22:04:38.508Z,29.93
2022-08-17T22:07:10.753Z,30.11
2022-08-17T22:09:44.544Z,30.25
2022-08-17T22:12:17.852Z,30.27
2022-08-17T22:14:58.234Z,30.19
2022-08-17T22:17:29.521Z,30.31
2022-08-17T22:20:01.669Z,30.65
2022-08-17T22:22:35.496Z,30.68
2022-08-17T22:25:07.799Z,30.79
2022-08-17T22:27:52.570Z,30.67
2022-08-17T22:30:33.277Z,30.66
2022-08-17T22:33:23.031Z,31.28
2022-08-17T22:36:11.081Z,31.24
2022-08-17T22:38:41.817Z,31.37
2022-08-17T22:41:34.496Z,31.09
2022-08-17T22:44:15.186Z,31.24
2022-08-17T22:46:55.299Z,31.61
2022-08-17T22:49:29.277Z,31.86
2022-08-17T22:52:03.811Z,31.66
2022-08-17T22:54:50.462Z,31.80
2022-08-17T23:00:29.621Z,32.32
2022-08-17T23:03:17.646Z,31.56
2022-08-17T23:05:49.283Z,31.84
2022-08-17T23:08:21.270Z,31.95
2022-08-17T23:10:50.435Z,32.04
2022-08-17T23:13:21.309Z,31.80
2022-08-17T23:15:52.816Z,31.67
2022-08-17T23:18:23.475Z,31.93
2022-08-17T23:20:52.258Z,31.91
2022-08-17T23:23:23.903Z,32.22
2022-08-17T23:25:52.653Z,32.17
2022-08-17T23:28:21.500Z,31.99
2022-08-17T23:30:51.324Z,32.06
2022-08-17T23:33:33.680Z,32.22
2022-08-17T23:36:02.521Z,32.08
2022-08-17T23:38:32.975Z,32.18
2022-08-17T23:41:04.440Z,31.88
2022-08-17T23:43:33.118Z,32.03
2022-08-17T23:46:03.995Z,32.37
2022-08-17T23:48:36.252Z,32.50
2022-08-17T23:51:09.583Z,32.19
2022-08-17T23:53:44.050Z,32.32
2022-08-17T23:56:12.890Z,32.47
2022-08-17T23:58:43.728Z,32.52
